Aviation Digital Data Service (ADDS)

Output produced by METARs form (0640 UTC 07 December 2022)
found at http://www.aviationweather.gov/metar/data/
 
EFJY 070620Z AUTO 21003KT 9999 -SHSN OVC017 M02/M03 Q1006
EFJY 070550Z AUTO VRB02KT 3700 -SN OVC011 M02/M03 Q1006
EFJY 070520Z AUTO 18003KT 9999 -FZRA OVC008 M02/M03 Q1006
EFJY 070450Z AUTO 21003KT 170V250 9999 OVC007 M02/M03 Q1006
EFJY 070420Z AUTO VRB02KT 9999 OVC006 M02/M03 Q1006
EFJY 070350Z AUTO 22003KT 190V260 9999 BCFG OVC004 M03/M03 Q1006
EFJY 070320Z AUTO 21003KT 1900 BR FEW004 BKN034 M03/M03 Q1005
EFJY 070250Z AUTO 17003KT 9999 OVC030 M02/M02 Q1005
EFJY 070220Z AUTO 17003KT 9999 SCT030 OVC043 M02/M02 Q1005
EFJY 070150Z AUTO 16004KT 9999 OVC036 M02/M02 Q1005 REFZRA
EFJY 070120Z AUTO 17003KT 9999 BKN020 OVC038 M01/M02 Q1005 REFZRA
EFJY 070050Z AUTO 18003KT 5000 -FZDZ BKN006 OVC015 M01/M02 Q1005
EFJY 070020Z AUTO 21002KT 6000 OVC005 M01/M02 Q1005
EFJY 062350Z AUTO 22002KT 7000 SCT006 OVC018 M01/M02 Q1005 REFZDZ REFZRA
EFJY 062320Z AUTO 19002KT 5000 -FZDZ OVC006 M01/M02 Q1005 REFZRA
EFJY 062250Z AUTO 19003KT 5000 BKN005 OVC019 M01/M02 Q1005 REFZRA
EFJY 062220Z AUTO 18002KT 9999 -FZRA OVC006 M01/M02 Q1006
EFJY 062150Z AUTO 17003KT 9999 -FZRA OVC005 M01/M02 Q1006 REFZDZ
EFJY 062120Z AUTO 15003KT 6000 -SHSN OVC008 M02/M02 Q1005 REFZDZ
EFJY 062050Z AUTO 16003KT 9999 -SHSN OVC009 M02/M02 Q1006 REFZRA
EFJY 062020Z AUTO 17003KT 8000 -FZRASN OVC009 M02/M02 Q1006
EFJY 061950Z AUTO 18003KT 4500 -SHSN OVC013 M02/M02 Q1006
EFJY 061920Z AUTO 18004KT 5000 -SHSN OVC006 M02/M02 Q1006
EFJY 061850Z AUTO 20004KT 170V230 9999 -SHSN OVC006 M02/M02 Q1006
EFJY 061820Z AUTO 19005KT 160V220 9999 -SHSN OVC006 M02/M03 Q1006
EFJY 061750Z AUTO 20005KT 170V240 9999 -SHSN OVC006 M02/M03 Q1006
EFJY 061720Z AUTO 19005KT 150V220 9999 BKN006 OVC024 M02/M03 Q1006
EFJY 061650Z AUTO 18006KT 9999 -SHSN SCT006 OVC024 M02/M03 Q1006
EFJY 061620Z AUTO 19005KT 9999 -SN BKN007 OVC023 M02/M03 Q1006
EFJY 061550Z AUTO 19006KT 7000 -SN BKN008 OVC021 M02/M03 Q1006
EFJY 061520Z AUTO 18005KT 4200 -SN OVC007 M02/M03 Q1007
EFJY 061450Z AUTO 19006KT 9000 -SN OVC007 M02/M03 Q1007
EFJY 061420Z AUTO 19006KT 9999 -SN OVC007 M02/M03 Q1007
EFJY 061350Z AUTO 19007KT 9999 -SN OVC007 M02/M03 Q1007
EFJY 061320Z AUTO 19006KT 9999 -SN OVC006 M02/M03 Q1007
EFJY 061250Z AUTO 19007KT 9999 -SHSN OVC006 M02/M03 Q1007
EFJY 061220Z AUTO 19007KT 9999 -SHSN OVC006 M02/M03 Q1007
EFJY 061150Z AUTO 19007KT 160V220 9999 OVC006 M02/M03 Q1007
EFJY 061120Z AUTO 19007KT 160V220 9999 -SHSN OVC006 M02/M03 Q1007
EFJY 061050Z AUTO 19007KT 9999 -SN OVC006 M02/M03 Q1008
EFJY 061020Z AUTO 19009KT 160V230 9999 -SHSN OVC006 M02/M03 Q1008
EFJY 060950Z AUTO 21009KT 170V230 9999 -SHSN OVC006 M02/M03 Q1008
EFJY 060920Z AUTO 20008KT 9999 OVC006 M02/M03 Q1008
EFJY 060850Z AUTO 21008KT 170V240 9999 OVC007 M02/M03 Q1009
EFJY 060820Z AUTO 20008KT 160V220 9999 OVC007 M02/M03 Q1009
EFJY 060650Z AUTO 19005KT 150V230 9999 -SN OVC007 M02/M03 Q1009
EFJY 060620Z AUTO 20007KT 170V230 8000 -SN OVC007 M02/M03 Q1009
EFJY 060550Z AUTO 20007KT 150V220 7000 -FZDZSN OVC006 M02/M03 Q1009
EFJY 060520Z AUTO 19008KT 9999 OVC008 M02/M04 Q1010
EFJY 060450Z AUTO 19007KT 9999 OVC009 M02/M04 Q1010
EFJY 060420Z AUTO 19007KT 9999 OVC008 M03/M04 Q1010
EFJY 060350Z AUTO 19007KT 150V220 9999 OVC007 M03/M04 Q1011
EFJY 060320Z AUTO 20006KT 160V240 9999 -SHSN BKN007 OVC020 M03/M04 Q1011
EFJY 060250Z AUTO 19008KT 9999 -SHSN BKN008 OVC023 M03/M04 Q1012
EFJY 060220Z AUTO 19007KT 9999 -SN BKN008 OVC025 M03/M05 Q1012
EFJY 060150Z AUTO 20007KT 150V220 9999 -SN SCT008 OVC027 M04/M05 Q1013
EFJY 060120Z AUTO 18008KT 150V210 9999 FEW009 OVC027 M04/M06 Q1013
EFJY 060050Z AUTO 18005KT 140V230 9999 OVC028 M05/M06 Q1014
EFJY 060020Z AUTO 19007KT 9999 OVC028 M05/M07 Q1014
EFJY 052350Z AUTO 18007KT 160V220 9999 OVC027 M05/M07 Q1015
EFJY 052320Z AUTO 18008KT 9999 OVC027 M05/M07 Q1016
EFJY 052250Z AUTO 19006KT 160V220 9999 BKN030 M06/M07 Q1016
EFJY 052220Z AUTO 19008KT 9999 SCT029 SCT035 M06/M08 Q1017
EFJY 052150Z AUTO 20007KT 170V230 9999 BKN029 M06/M07 Q1018
EFJY 052120Z AUTO 20008KT 9999 OVC027 M06/M08 Q1018
EFJY 052050Z AUTO 19007KT 9999 OVC027 M06/M08 Q1019
EFJY 052020Z AUTO 18005KT 150V210 9999 BKN028 M07/M08 Q1019
EFJY 051950Z AUTO 18006KT 9999 BKN026 M07/M08 Q1019
EFJY 051920Z AUTO 16006KT 9999 OVC025 M06/M07 Q1020
EFJY 051850Z AUTO 17007KT 9999 BKN026 M06/M08 Q1020
TAF AMD EFJY 070627Z 0706/0806 20004KT 9999 -SN OVC017 
     TEMPO 0706/0708 3000 -FZDZSN BKN008 
     BECMG 0711/0713 3000 BKN008 
     TEMPO 0713/0806 2000 BKN010